createdAt,value
2019-06-08T00:01:09.596Z,1003.4
2019-06-08T00:02:21.714Z,1003.5
2019-06-08T00:03:33.903Z,1003.5
2019-06-08T00:04:46.103Z,1003.4
2019-06-08T00:05:58.361Z,1003.4
2019-06-08T00:07:10.683Z,1003.4
2019-06-08T00:08:22.765Z,1003.3
2019-06-08T00:09:34.973Z,1003.4
2019-06-08T00:10:47.166Z,1003.4
2019-06-08T00:11:59.349Z,1003.4
2019-06-08T00:13:11.543Z,1003.3
2019-06-08T00:14:23.735Z,1003.4
2019-06-08T00:15:36.040Z,1003.5
2019-06-08T00:16:48.161Z,1003.5
2019-06-08T00:18:00.230Z,1003.3
2019-06-08T00:19:16.353Z,1003.5
2019-06-08T00:20:30.850Z,1003.4
2019-06-08T00:21:36.883Z,1003.5
2019-06-08T00:22:48.992Z,1003.3
2019-06-08T00:24:01.203Z,1003.5
2019-06-08T00:25:13.501Z,1003.4
2019-06-08T00:26:25.618Z,1003.5
2019-06-08T00:27:37.849Z,1003.5
2019-06-08T00:28:50.022Z,1003.4
2019-06-08T00:30:02.245Z,1003.5
2019-06-08T00:31:14.483Z,1003.5
2019-06-08T00:32:26.647Z,1003.6
2019-06-08T00:33:38.909Z,1003.6
2019-06-08T00:34:51.077Z,1003.5
2019-06-08T00:36:03.176Z,1003.5
2019-06-08T00:37:15.648Z,1003.6
2019-06-08T00:38:27.596Z,1003.6
2019-06-08T00:39:39.770Z,1003.7
2019-06-08T00:40:52.102Z,1003.6
2019-06-08T00:42:04.096Z,1003.6
2019-06-08T00:43:16.347Z,1003.6
2019-06-08T00:44:28.593Z,1003.7
2019-06-08T00:45:40.755Z,1003.7
2019-06-08T00:46:52.867Z,1003.8
2019-06-08T00:48:05.063Z,1003.8
2019-06-08T00:49:17.359Z,1003.8
2019-06-08T00:50:29.529Z,1003.9
2019-06-08T00:51:41.640Z,1003.8
2019-06-08T00:52:54.012Z,1003.8
2019-06-08T00:54:06.139Z,1003.9
2019-06-08T00:55:18.307Z,1003.8
2019-06-08T00:56:30.416Z,1003.7
2019-06-08T00:57:42.756Z,1003.9
2019-06-08T00:58:54.807Z,1004.1
2019-06-08T01:00:07.201Z,1003.9
2019-06-08T01:01:19.437Z,1003.9
2019-06-08T01:02:31.383Z,1003.9
2019-06-08T01:03:43.579Z,1004.1
2019-06-08T01:04:55.876Z,1003.9
2019-06-08T01:06:07.969Z,1004.2
2019-06-08T01:07:20.254Z,1004.1
2019-06-08T01:08:32.358Z,1004.1
2019-06-08T01:09:44.717Z,1004.1
2019-06-08T01:10:56.814Z,1004.2
2019-06-08T01:12:08.969Z,1004
2019-06-08T01:13:21.273Z,1004.2
2019-06-08T01:14:33.415Z,1004.1
2019-06-08T01:15:45.668Z,1004.2
2019-06-08T01:16:57.724Z,1004
2019-06-08T01:18:09.912Z,1004.1
2019-06-08T01:19:22.229Z,1004.2
2019-06-08T01:20:34.501Z,1004.2
2019-06-08T01:21:46.525Z,1004.2
2019-06-08T01:22:58.704Z,1004.2
2019-06-08T01:24:10.991Z,1004.1
2019-06-08T01:25:23.181Z,1004.1
2019-06-08T01:26:35.376Z,1004.2
2019-06-08T01:27:47.548Z,1004.3
2019-06-08T01:28:59.668Z,1004.2
2019-06-08T01:30:11.865Z,1004.2
2019-06-08T01:31:24.059Z,1004.2
2019-06-08T01:32:36.269Z,1004.1
2019-06-08T01:33:51.022Z,1004.2
2019-06-08T01:35:00.760Z,1004.2
2019-06-08T01:36:12.930Z,1004.1
2019-06-08T01:37:25.130Z,1004.2
2019-06-08T01:38:37.241Z,1004.2
2019-06-08T01:39:49.416Z,1004.4
2019-06-08T01:41:01.780Z,1004.3
2019-06-08T01:42:13.832Z,1004.1
2019-06-08T01:43:26.230Z,1004.2
2019-06-08T01:44:38.230Z,1004.3
2019-06-08T01:45:50.400Z,1004.3
2019-06-08T01:47:02.615Z,1004.3
2019-06-08T01:48:14.804Z,1004.3
2019-06-08T01:49:27.078Z,1004.3
2019-06-08T01:50:39.270Z,1004.2
2019-06-08T01:51:51.436Z,1004.2
2019-06-08T01:53:03.676Z,1004.3
2019-06-08T01:54:15.779Z,1004.3
2019-06-08T01:55:28.036Z,1004.3
2019-06-08T01:56:41.273Z,1004.3
2019-06-08T01:57:52.439Z,1004.4
2019-06-08T01:59:04.563Z,1004.4
2019-06-08T02:00:16.865Z,1004.3
2019-06-08T02:01:29.038Z,1004.3
2019-06-08T02:02:41.199Z,1004.3
2019-06-08T02:03:53.445Z,1004.4
2019-06-08T02:05:05.605Z,1004.4
2019-06-08T02:06:17.745Z,1004.4
2019-06-08T02:07:29.936Z,1004.4
2019-06-08T02:08:42.101Z,1004.4
2019-06-08T02:09:54.435Z,1004.4
2019-06-08T02:11:06.540Z,1004.3
2019-06-08T02:12:18.779Z,1004.4
2019-06-08T02:13:31.013Z,1004.4
2019-06-08T02:14:43.177Z,1004.5
2019-06-08T02:15:55.283Z,1004.6
2019-06-08T02:17:07.546Z,1004.6
2019-06-08T02:18:19.700Z,1004.6
2019-06-08T02:19:31.888Z,1004.7
2019-06-08T02:20:44.060Z,1004.7
2019-06-08T02:21:56.241Z,1004.7
2019-06-08T02:23:08.505Z,1004.7
2019-06-08T02:24:20.760Z,1004.6
2019-06-08T02:25:33.015Z,1004.6
2019-06-08T02:26:45.114Z,1004.6
2019-06-08T02:27:57.309Z,1004.7
2019-06-08T02:29:09.513Z,1004.6
2019-06-08T02:30:21.644Z,1004.6
2019-06-08T02:31:37.200Z,1004.7
2019-06-08T02:32:46.001Z,1004.7
2019-06-08T02:33:58.314Z,1004.7
2019-06-08T02:35:10.446Z,1004.7
2019-06-08T02:36:22.835Z,1004.9
2019-06-08T02:37:34.886Z,1004.8
2019-06-08T02:38:47.164Z,1004.8
2019-06-08T02:39:59.181Z,1004.8
2019-06-08T02:41:11.468Z,1004.8
2019-06-08T02:42:23.683Z,1005
2019-06-08T02:43:35.767Z,1004.9
2019-06-08T02:44:47.954Z,1005
2019-06-08T02:46:00.248Z,1005
2019-06-08T02:47:12.426Z,1005
2019-06-08T02:48:24.630Z,1004.9
2019-06-08T02:49:36.932Z,1005
2019-06-08T02:50:48.941Z,1005.1
2019-06-08T02:52:01.215Z,1005
2019-06-08T02:53:13.393Z,1005
2019-06-08T02:54:25.633Z,1005.1
2019-06-08T02:55:37.828Z,1005.1
2019-06-08T02:56:49.920Z,1005.2
2019-06-08T02:58:02.108Z,1005.3
2019-06-08T02:59:14.306Z,1005.1
2019-06-08T03:00:26.576Z,1005.2
2019-06-08T03:01:38.797Z,1005.2
2019-06-08T03:02:50.992Z,1005.4
2019-06-08T03:04:03.095Z,1005.1
2019-06-08T03:05:15.372Z,1005.3
2019-06-08T03:06:27.545Z,1005.2
2019-06-08T03:07:39.666Z,1005.2
2019-06-08T03:08:51.869Z,1005.2
2019-06-08T03:10:04.177Z,1005.3
2019-06-08T03:11:16.255Z,1005.4
2019-06-08T03:12:28.574Z,1005.4
2019-06-08T03:13:40.829Z,1005.5
2019-06-08T03:14:52.932Z,1005.5
2019-06-08T03:16:05.131Z,1005.6
2019-06-08T03:17:17.319Z,1005.5
2019-06-08T03:18:29.529Z,1005.6
2019-06-08T03:19:41.820Z,1005.5
2019-06-08T03:20:53.818Z,1005.5
2019-06-08T03:22:06.180Z,1005.5
2019-06-08T03:23:18.202Z,1005.7
2019-06-08T03:24:30.482Z,1005.5
2019-06-08T03:25:42.709Z,1005.6
2019-06-08T03:26:54.799Z,1005.7
2019-06-08T03:28:06.987Z,1005.6
2019-06-08T03:29:20.939Z,1005.5
2019-06-08T03:30:31.394Z,1005.5
2019-06-08T03:31:43.663Z,1005.6
2019-06-08T03:32:55.777Z,1005.6
2019-06-08T03:34:08.082Z,1005.6
2019-06-08T03:35:20.174Z,1005.7
2019-06-08T03:36:32.450Z,1005.5
2019-06-08T03:37:44.680Z,1005.6
2019-06-08T03:38:56.837Z,1005.7
2019-06-08T03:40:09.000Z,1005.8
2019-06-08T03:41:21.318Z,1005.7
2019-06-08T03:42:33.391Z,1005.7
2019-06-08T03:43:45.613Z,1005.7
2019-06-08T03:44:57.746Z,1005.8
2019-06-08T03:46:09.976Z,1005.7
2019-06-08T03:47:22.146Z,1005.6
2019-06-08T03:48:34.432Z,1005.7
2019-06-08T03:49:46.605Z,1005.8
2019-06-08T03:50:58.787Z,1005.8
2019-06-08T03:52:10.889Z,1005.8
2019-06-08T03:53:23.224Z,1005.7
2019-06-08T03:54:35.286Z,1005.7
2019-06-08T03:55:47.657Z,1005.8
2019-06-08T03:56:59.710Z,1005.7
2019-06-08T03:58:12.044Z,1005.9
2019-06-08T03:59:27.303Z,1005.8
2019-06-08T04:00:36.273Z,1005.9
2019-06-08T04:01:48.552Z,1005.9
2019-06-08T04:03:00.751Z,1005.9
2019-06-08T04:04:12.925Z,1005.9
2019-06-08T04:05:25.177Z,1005.9
2019-06-08T04:06:37.380Z,1006
2019-06-08T04:07:49.438Z,1006.1
2019-06-08T04:09:01.638Z,1006.1
2019-06-08T04:10:13.828Z,1006
2019-06-08T04:11:26.022Z,1006
2019-06-08T04:12:38.430Z,1005.9
2019-06-08T04:13:50.580Z,1006
2019-06-08T04:15:02.668Z,1006.3
2019-06-08T04:16:15.008Z,1006.1
2019-06-08T04:17:27.141Z,1006.1
2019-06-08T04:18:39.214Z,1006
2019-06-08T04:19:51.500Z,1006.1
2019-06-08T04:21:03.677Z,1006
2019-06-08T04:22:15.878Z,1006.1
2019-06-08T04:23:28.028Z,1006
2019-06-08T04:24:40.340Z,1006.2
2019-06-08T04:25:52.445Z,1006.2
2019-06-08T04:27:04.715Z,1006.1
2019-06-08T04:28:16.931Z,1006.2
2019-06-08T04:29:29.029Z,1006.1
2019-06-08T04:30:41.167Z,1006.2
2019-06-08T04:31:53.441Z,1006.2
2019-06-08T04:33:05.529Z,1006.2
2019-06-08T04:34:17.818Z,1006.2
2019-06-08T04:35:29.942Z,1006.3
2019-06-08T04:36:42.192Z,1006.2
2019-06-08T04:37:54.732Z,1006.2
2019-06-08T04:39:06.520Z,1006.3
2019-06-08T04:40:18.711Z,1006.3
2019-06-08T04:41:31.009Z,1006.3
2019-06-08T04:42:43.184Z,1006.3
2019-06-08T04:43:55.375Z,1006.2
2019-06-08T04:45:07.577Z,1006.4
2019-06-08T04:46:19.778Z,1006.3
2019-06-08T04:47:31.904Z,1006.2
2019-06-08T04:48:44.149Z,1006.4
2019-06-08T04:49:56.365Z,1006.3
2019-06-08T04:51:08.569Z,1006.5
2019-06-08T04:52:20.811Z,1006.5
2019-06-08T04:53:32.942Z,1006.5
2019-06-08T04:54:45.150Z,1006.4
2019-06-08T04:55:57.336Z,1006.5
2019-06-08T04:57:09.457Z,1006.6
2019-06-08T04:58:21.705Z,1006.7
2019-06-08T04:59:33.930Z,1006.6
2019-06-08T05:00:46.130Z,1006.6
2019-06-08T05:01:58.437Z,1006.5
2019-06-08T05:03:10.509Z,1006.7
2019-06-08T05:04:22.627Z,1006.7
2019-06-08T05:05:34.910Z,1006.8
2019-06-08T05:06:47.089Z,1006.8
2019-06-08T05:07:59.374Z,1006.7
2019-06-08T05:09:11.401Z,1006.7
2019-06-08T05:10:23.753Z,1006.7
2019-06-08T05:11:35.806Z,1006.7
2019-06-08T05:12:48.053Z,1007
2019-06-08T05:14:00.259Z,1006.7
2019-06-08T05:15:12.436Z,1006.9
2019-06-08T05:16:26.049Z,1006.4
2019-06-08T05:17:36.780Z,1006.6
2019-06-08T05:18:48.966Z,1006.6
2019-06-08T05:20:01.240Z,1006.8
2019-06-08T05:21:13.345Z,1006.8
2019-06-08T05:22:25.711Z,1007
2019-06-08T05:23:37.842Z,1006.8
2019-06-08T05:24:50.025Z,1006.8
2019-06-08T05:26:02.216Z,1006.9
2019-06-08T05:27:14.415Z,1006.7
2019-06-08T05:28:26.515Z,1006.9
2019-06-08T05:29:38.724Z,1007.1
2019-06-08T05:30:51.049Z,1006.9
2019-06-08T05:32:03.166Z,1007
2019-06-08T05:33:21.047Z,1007
2019-06-08T05:34:27.605Z,1007.1
2019-06-08T05:35:39.685Z,1007.1
2019-06-08T05:36:52.384Z,1007
2019-06-08T05:38:04.182Z,1006.9
2019-06-08T05:39:16.319Z,1007
2019-06-08T05:40:28.465Z,1007
2019-06-08T05:41:40.780Z,1007.1
2019-06-08T05:42:52.970Z,1007.1
2019-06-08T05:44:05.056Z,1007.1
2019-06-08T05:45:17.246Z,1007.1
2019-06-08T05:46:29.521Z,1007.2
2019-06-08T05:47:41.666Z,1007.1
2019-06-08T05:48:53.832Z,1007.1
2019-06-08T05:50:08.083Z,1007.1
2019-06-08T05:51:18.231Z,1007
2019-06-08T05:52:30.429Z,1006.9
2019-06-08T05:53:42.777Z,1007.1
2019-06-08T05:54:57.029Z,1007.1
2019-06-08T05:56:07.187Z,1007.2
2019-06-08T05:57:19.233Z,1007.2
2019-06-08T05:58:31.506Z,1007.3
2019-06-08T05:59:43.600Z,1007.2
2019-06-08T06:00:55.868Z,1007.3
2019-06-08T06:02:08.084Z,1007.3
2019-06-08T06:03:20.352Z,1007.2
2019-06-08T06:04:32.373Z,1007.3
2019-06-08T06:05:44.759Z,1007.3
2019-06-08T06:06:56.842Z,1007.4
2019-06-08T06:08:09.100Z,1007.3
2019-06-08T06:09:21.281Z,1007.4
2019-06-08T06:10:33.422Z,1007.4
2019-06-08T06:11:45.742Z,1007.5
2019-06-08T06:12:57.931Z,1007.6
2019-06-08T06:14:10.974Z,1007.6
2019-06-08T06:15:22.242Z,1007.6
2019-06-08T06:16:34.418Z,1007.6
2019-06-08T06:17:46.592Z,1007.6
2019-06-08T06:18:58.796Z,1007.7
2019-06-08T06:20:11.043Z,1007.6
2019-06-08T06:21:23.120Z,1007.6
2019-06-08T06:22:35.318Z,1007.5
2019-06-08T06:23:47.501Z,1007.7
2019-06-08T06:25:00.288Z,1007.7
2019-06-08T06:26:12.081Z,1007.8
2019-06-08T06:27:30.307Z,1007.7
2019-06-08T06:28:36.283Z,1007.9
2019-06-08T06:29:48.548Z,1007.8
2019-06-08T06:31:00.792Z,1007.7
2019-06-08T06:32:12.964Z,1007.8
2019-06-08T06:33:25.058Z,1007.9
2019-06-08T06:34:37.369Z,1007.9
2019-06-08T06:35:49.553Z,1007.6
2019-06-08T06:37:01.721Z,1007.9
2019-06-08T06:38:13.942Z,1007.7
2019-06-08T06:39:26.130Z,1007.9
2019-06-08T06:40:38.251Z,1007.9
2019-06-08T06:41:50.510Z,1007.9
2019-06-08T06:43:07.445Z,1008
2019-06-08T06:44:14.884Z,1007.8
2019-06-08T06:45:27.026Z,1007.9
2019-06-08T06:46:39.288Z,1008.2
2019-06-08T06:47:51.417Z,1007.9
2019-06-08T06:49:03.770Z,1007.9
2019-06-08T06:50:15.905Z,1007.9
2019-06-08T06:51:28.073Z,1007.9
2019-06-08T06:52:40.376Z,1008
2019-06-08T06:53:52.493Z,1008
2019-06-08T06:55:04.597Z,1008
2019-06-08T06:56:16.861Z,1008
2019-06-08T06:57:28.980Z,1008
2019-06-08T06:58:41.255Z,1008
2019-06-08T06:59:53.414Z,1008.3
2019-06-08T07:01:05.647Z,1008.2
2019-06-08T07:02:17.861Z,1008.1
2019-06-08T07:03:29.945Z,1008.3
2019-06-08T07:04:42.319Z,1008.2
2019-06-08T07:05:54.338Z,1008.1
2019-06-08T07:07:06.666Z,1008.4
2019-06-08T07:08:18.855Z,1008.2
2019-06-08T07:09:31.233Z,1008.2
2019-06-08T07:11:55.409Z,1008.2
2019-06-08T07:16:44.159Z,1008.2
2019-06-08T07:17:56.283Z,1008.4
2019-06-08T07:19:08.568Z,1008.4
2019-06-08T07:20:20.859Z,1008.4
2019-06-08T07:21:32.911Z,1008.3
2019-06-08T07:22:45.165Z,1008.5
2019-06-08T07:23:57.280Z,1008.4
2019-06-08T07:25:10.077Z,1008.5
2019-06-08T07:26:21.753Z,1008.2
2019-06-08T07:27:33.880Z,1008.5
2019-06-08T07:28:51.876Z,1008.6
2019-06-08T07:29:58.388Z,1008.4
2019-06-08T07:31:10.524Z,1008.4
2019-06-08T07:32:22.739Z,1008.4
2019-06-08T07:33:34.851Z,1008.5
2019-06-08T07:34:47.205Z,1008.6
2019-06-08T07:35:59.215Z,1008.5
2019-06-08T07:37:11.600Z,1008.6
2019-06-08T07:38:23.772Z,1008.7
2019-06-08T07:39:35.801Z,1008.7
2019-06-08T07:40:47.999Z,1008.7
2019-06-08T07:42:00.243Z,1008.5
2019-06-08T07:43:12.469Z,1008.5
2019-06-08T07:44:24.721Z,1008.6
2019-06-08T07:45:36.947Z,1008.4
2019-06-08T07:46:48.985Z,1008.3
2019-06-08T07:48:01.189Z,1008.5
2019-06-08T07:49:13.460Z,1008.5
2019-06-08T07:50:25.716Z,1008.6
2019-06-08T07:51:37.862Z,1008.7
2019-06-08T07:52:49.978Z,1008.8
2019-06-08T07:54:02.243Z,1008.4
2019-06-08T07:55:14.412Z,1008.7
2019-06-08T07:56:26.586Z,1008.6
2019-06-08T07:57:38.840Z,1008.4
2019-06-08T07:58:51.045Z,1008.8
2019-06-08T08:00:03.145Z,1008.7
2019-06-08T08:01:15.561Z,1008.7
2019-06-08T08:02:27.668Z,1008.7
2019-06-08T08:03:39.795Z,1008.8
2019-06-08T08:04:51.941Z,1008.8
2019-06-08T08:06:04.215Z,1008.7
2019-06-08T08:07:16.388Z,1008.8
2019-06-08T08:08:28.726Z,1008.7
2019-06-08T08:09:40.729Z,1008.9
2019-06-08T08:10:53.218Z,1008.9
2019-06-08T08:12:05.064Z,1009.7
2019-06-08T08:13:17.370Z,1009
2019-06-08T08:14:29.550Z,1009.1
2019-06-08T08:15:41.759Z,1008.8
2019-06-08T08:16:53.949Z,1008.9
2019-06-08T08:18:06.135Z,1008.9
2019-06-08T08:19:18.336Z,1008.9
2019-06-08T08:20:30.610Z,1009
2019-06-08T08:21:42.622Z,1008.9
2019-06-08T08:22:54.923Z,1008.9
2019-06-08T08:24:07.123Z,1008.8
2019-06-08T08:25:21.384Z,1008.4
2019-06-08T08:26:31.550Z,1008.9
2019-06-08T08:27:43.685Z,1008.9
2019-06-08T08:28:55.868Z,1009
2019-06-08T08:30:08.115Z,1008.8
2019-06-08T08:31:20.252Z,1008.9
2019-06-08T08:32:32.478Z,1008.9
2019-06-08T08:33:44.594Z,1008.9
2019-06-08T08:34:56.969Z,1009
2019-06-08T08:36:09.067Z,1009
2019-06-08T08:37:21.287Z,1008.9
2019-06-08T08:38:33.441Z,1009.2
2019-06-08T08:39:45.708Z,1009
2019-06-08T08:40:57.759Z,1009
2019-06-08T08:42:10.046Z,1009.2
2019-06-08T08:43:22.264Z,1009.2
2019-06-08T08:44:34.437Z,1009.2
2019-06-08T08:45:46.549Z,1009
2019-06-08T08:46:58.786Z,1009.3
2019-06-08T08:48:10.920Z,1009
2019-06-08T08:49:23.193Z,1009.2
2019-06-08T08:50:35.394Z,1009.2
2019-06-08T08:51:47.611Z,1009.3
2019-06-08T08:52:59.759Z,1009.3
2019-06-08T08:54:11.986Z,1009.3
2019-06-08T08:55:24.174Z,1009.3
2019-06-08T08:56:36.331Z,1009.3
2019-06-08T08:57:48.504Z,1009.3
2019-06-08T08:59:00.763Z,1009.3
2019-06-08T09:00:12.867Z,1009.4
2019-06-08T09:01:25.147Z,1009.5
2019-06-08T09:02:37.385Z,1009.3
2019-06-08T09:03:49.540Z,1009.5
2019-06-08T09:05:01.739Z,1009.4
2019-06-08T09:06:13.931Z,1009.6
2019-06-08T09:07:26.163Z,1009.6
2019-06-08T09:08:38.311Z,1009.5
2019-06-08T09:09:50.501Z,1009.5
2019-06-08T09:11:02.715Z,1009.7
2019-06-08T09:12:14.815Z,1009.6
2019-06-08T09:13:27.098Z,1009.6
2019-06-08T09:14:39.297Z,1010
2019-06-08T09:15:51.470Z,1010.2
2019-06-08T09:17:03.751Z,1010.3
2019-06-08T09:18:15.804Z,1009.9
2019-06-08T09:19:28.084Z,1009.8
2019-06-08T09:20:40.382Z,1009.7
2019-06-08T09:21:52.549Z,1009.9
2019-06-08T09:23:04.662Z,1009.7
2019-06-08T09:24:16.767Z,1009.7
2019-06-08T09:25:30.311Z,1009.7
2019-06-08T09:26:41.249Z,1009.7
2019-06-08T09:27:53.434Z,1009.7
2019-06-08T09:29:05.651Z,1009.8
2019-06-08T09:30:17.918Z,1009.8
2019-06-08T09:31:29.964Z,1009.9
2019-06-08T09:32:42.226Z,1009.9
2019-06-08T09:33:54.357Z,1009.9
2019-06-08T09:35:06.673Z,1009.8
2019-06-08T09:36:18.730Z,1009.8
2019-06-08T09:37:30.985Z,1009.9
2019-06-08T09:38:43.206Z,1009.9
2019-06-08T09:39:55.404Z,1009.9
2019-06-08T09:41:07.637Z,1009.9
2019-06-08T09:42:19.778Z,1009.7
2019-06-08T09:43:31.985Z,1009.9
2019-06-08T09:44:44.206Z,1009.9
2019-06-08T09:45:56.326Z,1010.2
2019-06-08T09:47:08.610Z,1009.9
2019-06-08T09:48:20.667Z,1009.9
2019-06-08T09:49:32.955Z,1009.7
2019-06-08T09:50:45.252Z,1009.9
2019-06-08T09:51:57.452Z,1009.8
2019-06-08T09:53:09.476Z,1009.9
2019-06-08T09:54:21.748Z,1009.8
2019-06-08T09:55:37.385Z,1009.8
2019-06-08T09:56:51.860Z,1010.1
2019-06-08T09:57:58.260Z,1009.8
2019-06-08T09:59:10.515Z,1010
2019-06-08T10:00:22.813Z,1010.1
2019-06-08T10:01:34.894Z,1010
2019-06-08T10:02:47.109Z,1009.9
2019-06-08T10:03:59.306Z,1010
2019-06-08T10:05:11.397Z,1010
2019-06-08T10:06:23.656Z,1010
2019-06-08T10:07:35.911Z,1009.9
2019-06-08T10:08:48.101Z,1010.2
2019-06-08T10:10:00.260Z,1010.1
2019-06-08T10:11:12.539Z,1010.1
2019-06-08T10:12:24.570Z,1009.9
2019-06-08T10:13:36.827Z,1010.3
2019-06-08T10:14:49.136Z,1010.2
2019-06-08T10:16:01.259Z,1010.3
2019-06-08T10:17:13.365Z,1010.4
2019-06-08T10:18:25.691Z,1010.6
2019-06-08T10:19:37.842Z,1010.2
2019-06-08T10:20:50.044Z,1010.5
2019-06-08T10:22:02.141Z,1010
2019-06-08T10:23:14.398Z,1010.4
2019-06-08T10:24:26.555Z,1010.1
2019-06-08T10:25:38.818Z,1010.2
2019-06-08T10:26:51.068Z,1010.4
2019-06-08T10:28:03.199Z,1010.3
2019-06-08T10:29:15.489Z,1010.3
2019-06-08T10:30:27.598Z,1010.5
2019-06-08T10:31:39.792Z,1010.3
2019-06-08T10:32:51.986Z,1010.4
2019-06-08T10:34:04.099Z,1010.3
2019-06-08T10:35:16.420Z,1010.3
2019-06-08T10:36:28.471Z,1010.4
2019-06-08T10:37:40.737Z,1010.4
2019-06-08T10:38:53.005Z,1010.4
2019-06-08T10:40:05.157Z,1010.4
2019-06-08T10:41:17.255Z,1010.4
2019-06-08T10:42:29.515Z,1010.4
2019-06-08T10:43:41.805Z,1010.4
2019-06-08T10:44:55.535Z,1010.3
2019-06-08T10:46:06.075Z,1010.3
2019-06-08T10:47:18.307Z,1010.5
2019-06-08T10:48:30.405Z,1010.4
2019-06-08T10:49:42.694Z,1010.2
2019-06-08T10:50:54.953Z,1010.4
2019-06-08T10:52:07.110Z,1010.5
2019-06-08T10:53:19.194Z,1010.5
2019-06-08T10:54:31.603Z,1010.3
2019-06-08T10:55:43.635Z,1010.4
2019-06-08T10:56:56.717Z,1010.4
2019-06-08T10:58:07.947Z,1010.5
2019-06-08T10:59:20.208Z,1010.4
2019-06-08T11:00:32.337Z,1010.7
2019-06-08T11:01:44.621Z,1010.5
2019-06-08T11:02:56.857Z,1010.5
2019-06-08T11:04:09.005Z,1010.4
2019-06-08T11:05:21.203Z,1010.6
2019-06-08T11:06:33.344Z,1010.8
2019-06-08T11:07:45.579Z,1010.5
2019-06-08T11:08:57.809Z,1010.5
2019-06-08T11:10:09.890Z,1010.4
2019-06-08T11:11:22.267Z,1010.5
2019-06-08T11:12:34.299Z,1010.6
2019-06-08T11:13:46.583Z,1010.6
2019-06-08T11:15:00.097Z,1010.6
2019-06-08T11:16:10.957Z,1010.9
2019-06-08T11:17:23.045Z,1010.7
2019-06-08T11:18:35.295Z,1010.6
2019-06-08T11:19:47.515Z,1010.6
2019-06-08T11:20:59.715Z,1010.7
2019-06-08T11:22:11.842Z,1010.7
2019-06-08T11:23:24.110Z,1010.6
2019-06-08T11:24:36.347Z,1010.7
2019-06-08T11:25:48.479Z,1010.9
2019-06-08T11:27:00.701Z,1010.7
2019-06-08T11:28:12.875Z,1010.8
2019-06-08T11:29:25.012Z,1010.8
2019-06-08T11:30:37.359Z,1010.8
2019-06-08T11:31:49.470Z,1011.1
2019-06-08T11:33:01.653Z,1010.8
2019-06-08T11:34:13.772Z,1010.8
2019-06-08T11:35:26.049Z,1010.7
2019-06-08T11:36:38.229Z,1010.9
2019-06-08T11:37:51.732Z,1010.8
2019-06-08T11:39:02.627Z,1010.9
2019-06-08T11:40:14.816Z,1010.9
2019-06-08T11:41:26.995Z,1010.8
2019-06-08T11:42:39.214Z,1011.2
2019-06-08T11:43:51.360Z,1010.8
2019-06-08T11:45:03.613Z,1010.7
2019-06-08T11:46:15.688Z,1010.9
2019-06-08T11:47:27.953Z,1011.2
2019-06-08T11:48:40.155Z,1010.9
2019-06-08T11:49:52.399Z,1011
2019-06-08T11:51:04.604Z,1011
2019-06-08T11:52:16.742Z,1010.9
2019-06-08T11:53:28.983Z,1011
2019-06-08T11:54:41.245Z,1011.1
2019-06-08T11:55:53.417Z,1011.1
2019-06-08T11:57:05.521Z,1011
2019-06-08T11:58:17.711Z,1011
2019-06-08T11:59:29.970Z,1011.1
2019-06-08T12:00:42.042Z,1011
2019-06-08T12:01:54.824Z,1010.9
2019-06-08T12:03:06.491Z,1011
2019-06-08T12:04:18.706Z,1011.1
2019-06-08T12:05:30.784Z,1011
2019-06-08T12:06:43.085Z,1011.1
2019-06-08T12:07:55.181Z,1011.1
2019-06-08T12:09:07.423Z,1011
2019-06-08T12:10:19.552Z,1011
2019-06-08T12:11:31.835Z,1011.1
2019-06-08T12:12:47.469Z,1011.1
2019-06-08T12:13:56.231Z,1011.2
2019-06-08T12:15:08.431Z,1011.1
2019-06-08T12:16:20.621Z,1011.2
2019-06-08T12:17:36.925Z,1011.1
2019-06-08T12:18:45.008Z,1011.2
2019-06-08T12:19:57.609Z,1011.2
2019-06-08T12:21:09.398Z,1011.2
2019-06-08T12:22:21.513Z,1011.3
2019-06-08T12:23:33.783Z,1011.2
2019-06-08T12:24:45.911Z,1011.2
2019-06-08T12:25:58.156Z,1011.3
2019-06-08T12:27:10.368Z,1011.3
2019-06-08T12:28:22.625Z,1011.1
2019-06-08T12:29:34.741Z,1011.1
2019-06-08T12:30:52.272Z,1011.2
2019-06-08T12:31:59.125Z,1011.2
2019-06-08T12:33:11.326Z,1011.1
2019-06-08T12:34:23.460Z,1011.1
2019-06-08T12:35:35.731Z,1011.1
2019-06-08T12:36:47.858Z,1011.2
2019-06-08T12:38:00.063Z,1011.1
2019-06-08T12:39:12.318Z,1011.2
2019-06-08T12:40:24.502Z,1011.1
2019-06-08T12:41:36.690Z,1011.1
2019-06-08T12:42:51.218Z,1011
2019-06-08T12:44:00.979Z,1011.1
2019-06-08T12:45:13.274Z,1011
2019-06-08T12:46:25.961Z,1011.1
2019-06-08T12:47:37.630Z,1011.2
2019-06-08T12:48:49.836Z,1011
2019-06-08T12:50:02.122Z,1011.1
2019-06-08T12:51:20.838Z,1011
2019-06-08T12:52:26.544Z,1011.2
2019-06-08T12:53:38.603Z,1011
2019-06-08T12:54:50.829Z,1011.2
2019-06-08T12:56:03.083Z,1011
2019-06-08T12:57:15.246Z,1011.1
2019-06-08T12:58:27.312Z,1011
2019-06-08T12:59:39.544Z,1011.2
2019-06-08T13:00:51.709Z,1011.2
2019-06-08T13:02:03.938Z,1011
2019-06-08T13:03:16.191Z,1010.9
2019-06-08T13:04:28.286Z,1011.1
2019-06-08T13:05:40.534Z,1011.1
2019-06-08T13:06:53.155Z,1011
2019-06-08T13:08:04.936Z,1011
2019-06-08T13:09:17.157Z,1010.8
2019-06-08T13:10:29.289Z,1011.1
2019-06-08T13:11:41.651Z,1011.1
2019-06-08T13:12:53.651Z,1011.1
2019-06-08T13:14:08.037Z,1011.2
2019-06-08T13:15:18.161Z,1011.1
2019-06-08T13:16:30.311Z,1011
2019-06-08T13:17:42.396Z,1011.1
2019-06-08T13:18:54.680Z,1011
2019-06-08T13:20:06.889Z,1011.2
2019-06-08T13:21:19.058Z,1011.1
2019-06-08T13:22:31.172Z,1011.2
2019-06-08T13:23:43.548Z,1011.2
2019-06-08T13:24:55.550Z,1011.1
2019-06-08T13:26:07.832Z,1011.4
2019-06-08T13:27:20.106Z,1011.3
2019-06-08T13:28:32.230Z,1011.4
2019-06-08T13:29:44.407Z,1011.3
2019-06-08T13:30:56.593Z,1011.4
2019-06-08T13:32:08.715Z,1011.2
2019-06-08T13:33:21.097Z,1011.4
2019-06-08T13:34:33.111Z,1011.3
2019-06-08T13:35:45.404Z,1011.4
2019-06-08T13:36:57.565Z,1011.5
2019-06-08T13:38:09.773Z,1011.4
2019-06-08T13:39:22.052Z,1011.5
2019-06-08T13:40:34.154Z,1011.3
2019-06-08T13:41:46.283Z,1011.5
2019-06-08T13:42:59.973Z,1011.6
2019-06-08T13:44:10.749Z,1011.5
2019-06-08T13:45:22.948Z,1011.4
2019-06-08T13:46:35.103Z,1011.4
2019-06-08T13:47:47.341Z,1011.5
2019-06-08T13:48:59.435Z,1011.6
2019-06-08T13:50:11.756Z,1011.5
2019-06-08T13:51:23.921Z,1011.8
2019-06-08T13:52:36.347Z,1011.5
2019-06-08T13:53:48.307Z,1011.4
2019-06-08T13:55:00.493Z,1011.8
2019-06-08T13:56:12.670Z,1011.5
2019-06-08T13:57:24.989Z,1011.5
2019-06-08T13:58:36.976Z,1011.6
2019-06-08T13:59:49.272Z,1011.5
2019-06-08T14:01:01.365Z,1011.6
2019-06-08T14:02:13.679Z,1011.5
2019-06-08T14:03:25.837Z,1011.6
2019-06-08T14:04:38.051Z,1011.7
2019-06-08T14:05:50.219Z,1011.6
2019-06-08T14:07:02.419Z,1011.7
2019-06-08T14:08:14.530Z,1011.7
2019-06-08T14:09:26.809Z,1011.5
2019-06-08T14:10:38.935Z,1011.5
2019-06-08T14:11:51.276Z,1011.5
2019-06-08T14:13:03.432Z,1011.4
2019-06-08T14:14:15.591Z,1011.5
2019-06-08T14:15:27.856Z,1011.5
2019-06-08T14:16:40.050Z,1011.5
2019-06-08T14:17:52.184Z,1011.6
2019-06-08T14:19:04.277Z,1011.2
2019-06-08T14:20:16.638Z,1011.5
2019-06-08T14:21:28.819Z,1011.4
2019-06-08T14:22:40.840Z,1011.4
2019-06-08T14:23:53.431Z,1011.3
2019-06-08T14:25:05.231Z,1011.4
2019-06-08T14:26:17.420Z,1011.2
2019-06-08T14:27:29.813Z,1011.3
2019-06-08T14:28:43.986Z,1011.3
2019-06-08T14:29:57.585Z,1011.3
2019-06-08T14:31:06.309Z,1011.3
2019-06-08T14:32:18.407Z,1011.3
2019-06-08T14:33:30.667Z,1011.3
2019-06-08T14:34:42.779Z,1011.4
2019-06-08T14:35:55.071Z,1011.3
2019-06-08T14:37:07.304Z,1011.3
2019-06-08T14:38:19.455Z,1011.4
2019-06-08T14:39:31.642Z,1011.5
2019-06-08T14:40:43.779Z,1011.6
2019-06-08T14:41:55.950Z,1011.6
2019-06-08T14:43:08.251Z,1011.4
2019-06-08T14:44:20.380Z,1011.5
2019-06-08T14:45:32.603Z,1011.4
2019-06-08T14:46:44.846Z,1011.6
2019-06-08T14:47:56.908Z,1011.5
2019-06-08T14:49:09.148Z,1011.6
2019-06-08T14:50:21.307Z,1011.5
2019-06-08T14:51:33.652Z,1011.5
2019-06-08T14:52:45.780Z,1011.5
2019-06-08T14:53:57.931Z,1011.4
2019-06-08T14:55:10.096Z,1011.4
2019-06-08T14:56:22.395Z,1011.5
2019-06-08T14:57:34.530Z,1011.5
2019-06-08T14:58:46.669Z,1011.5
2019-06-08T14:59:58.849Z,1011.5
2019-06-08T15:01:11.029Z,1011.5
2019-06-08T15:02:23.244Z,1011.6
2019-06-08T15:03:35.503Z,1011.5
2019-06-08T15:04:47.765Z,1011.5
2019-06-08T15:06:00.040Z,1011.6
2019-06-08T15:07:12.198Z,1011.6
2019-06-08T15:08:24.221Z,1011.5
2019-06-08T15:09:36.606Z,1011.7
2019-06-08T15:10:48.599Z,1011.6